Estación Meteorológica Peña el Pijo (Robertgarden) [ 11/16/18 15:12:20 CET ]

Fecha Hora Presion(HPa) Temp (°C) Humedad % Rocio (°C) Viento ( m/s) Direccion Lluvia 1Hora(mm) Lluvia 24H(mm) LLuvia Total(mm)
2018-Sep-10 01:01:57 1013.500 14.4 89 12.6         343.95
2018-Sep-10 02:01:41 1013.600 14.7 90 13.1         343.95
2018-Sep-10 03:02:04 1013.800 14.0 90 12.5     1.03 1.03 344.98
2018-Sep-10 04:02:22 1014.200 13.2 90 11.6       1.03 344.98
2018-Sep-10 05:02:22 1013.600 12.4 90 10.8       1.03 344.98
2018-Sep-10 06:02:13 1013.100 11.4 90 9.8       1.03 344.98
2018-Sep-10 07:01:47 1013.300 10.7 91 9.3       1.03 344.98
2018-Sep-10 08:01:31 1013.700 10.0 91 8.6       1.03 344.98
2018-Sep-10 09:01:41 1014.200 11.0 91 9.6       1.03 344.98
2018-Sep-10 10:01:52 1014.900 13.4 92 12.1       1.03 344.98
2018-Sep-10 11:01:43 1015.400 14.9 92 13.6       1.03 344.98
2018-Sep-10 12:01:46 1015.500 18.1 88 16.1       1.03 344.98
2018-Sep-10 13:01:50 1015.100 23.4 68 17.2       1.03 344.98
2018-Sep-10 14:01:46 1014.500 23.9 60 15.7       1.03 344.98
2018-Sep-10 15:01:40 1014.200 22.8 60 14.6       1.03 344.98
2018-Sep-10 16:01:47 1013.700 24.6 57 15.5       1.03 344.98
2018-Sep-10 17:02:00 1013.800 25.6 53 15.3       1.03 344.98
2018-Sep-10 18:01:37 1013.500 24.9 54 14.9       1.03 344.98
2018-Sep-10 19:01:47 1013.800 23.3 53 13.1       1.03 344.98
2018-Sep-10 20:01:29 1014.100 20.4 66 13.8       1.03 344.98
2018-Sep-10 21:01:34 1014.800 18.6 75 14.1       1.03 344.98
2018-Sep-10 22:01:28 1015.700 17.0 80 13.5       1.03 344.98
2018-Sep-10 23:01:11 1016.100 16.3 83 13.4       1.03 344.98

Temperatura Máxima:25°    Temperatura Mínima:10°
Presión Máxima:1016.100 Hpa    Presión Mínima:1013.100 Hpa


Volver